createdAt,value
2022-11-28T00:00:37.116Z,6.10
2022-11-28T00:01:37.121Z,6.06
2022-11-28T00:02:37.181Z,6.07
2022-11-28T00:03:37.233Z,6.03
2022-11-28T00:04:37.013Z,5.98
2022-11-28T00:05:37.006Z,6.07
2022-11-28T00:06:36.965Z,6.03
2022-11-28T00:07:36.981Z,6.01
2022-11-28T00:08:36.912Z,6.03
2022-11-28T00:09:36.894Z,6.06
2022-11-28T00:10:36.866Z,5.98
2022-11-28T00:11:36.855Z,6.01
2022-11-28T00:12:36.814Z,5.93
2022-11-28T00:13:36.793Z,5.93
2022-11-28T00:14:36.764Z,5.96
2022-11-28T00:15:36.781Z,5.95
2022-11-28T00:16:36.802Z,5.88
2022-11-28T00:17:36.687Z,5.89
2022-11-28T00:18:36.681Z,5.86
2022-11-28T00:19:36.738Z,5.86
2022-11-28T00:20:36.623Z,6.01
2022-11-28T00:21:36.587Z,6.00
2022-11-28T00:22:36.559Z,5.98
2022-11-28T00:23:36.537Z,5.96
2022-11-28T00:24:36.505Z,5.93
2022-11-28T00:25:36.487Z,5.95
2022-11-28T00:26:36.456Z,5.96
2022-11-28T00:27:36.436Z,5.95
2022-11-28T00:28:36.424Z,6.01
2022-11-28T00:29:36.381Z,5.89
2022-11-28T00:30:36.351Z,5.83
2022-11-28T00:31:36.404Z,5.92
2022-11-28T00:32:36.300Z,5.85
2022-11-28T00:33:36.283Z,5.89
2022-11-28T00:34:36.247Z,5.82
2022-11-28T00:35:36.325Z,5.91
2022-11-28T00:36:36.201Z,5.89
2022-11-28T00:37:36.176Z,5.83
2022-11-28T00:38:36.173Z,5.89
2022-11-28T00:39:36.122Z,5.82
2022-11-28T00:40:36.092Z,5.95
2022-11-28T00:41:36.073Z,5.96
2022-11-28T00:42:36.046Z,5.91
2022-11-28T00:43:36.055Z,5.96
2022-11-28T00:44:35.996Z,6.00
2022-11-28T00:45:36.040Z,5.92
2022-11-28T00:46:35.942Z,5.92
2022-11-28T00:47:35.939Z,5.96
2022-11-28T00:48:35.923Z,5.91
2022-11-28T00:49:35.876Z,6.00
2022-11-28T00:50:35.841Z,5.92
2022-11-28T00:51:35.915Z,5.92
2022-11-28T00:52:35.791Z,5.93
2022-11-28T00:53:35.768Z,5.91
2022-11-28T00:54:35.736Z,5.92
2022-11-28T00:55:35.716Z,5.95
2022-11-28T00:56:35.688Z,5.93
2022-11-28T00:57:35.664Z,6.04
2022-11-28T00:58:35.637Z,6.00
2022-11-28T00:59:35.631Z,6.01
2022-11-28T01:00:35.591Z,6.01
2022-11-28T01:01:35.604Z,6.07
2022-11-28T01:02:35.562Z,6.03
2022-11-28T01:03:35.509Z,6.04
2022-11-28T01:04:35.480Z,6.07
2022-11-28T01:05:35.502Z,6.07
2022-11-28T01:06:35.427Z,6.03
2022-11-28T01:07:35.573Z,6.00
2022-11-28T01:08:35.379Z,6.03
2022-11-28T01:09:35.360Z,6.04
2022-11-28T01:10:35.354Z,6.07
2022-11-28T01:11:35.306Z,6.07
2022-11-28T01:12:35.278Z,6.07
2022-11-28T01:13:35.259Z,6.04
2022-11-28T01:14:35.230Z,6.01
2022-11-28T01:15:35.207Z,6.04
2022-11-28T01:16:35.233Z,6.03
2022-11-28T01:17:35.155Z,6.06
2022-11-28T01:18:35.129Z,6.09
2022-11-28T01:19:35.099Z,6.07
2022-11-28T01:20:35.090Z,6.01
2022-11-28T01:21:35.054Z,6.01
2022-11-28T01:22:35.025Z,6.04
2022-11-28T01:23:35.093Z,6.09
2022-11-28T01:24:34.970Z,6.06
2022-11-28T01:25:34.947Z,6.11
2022-11-28T01:26:34.916Z,6.03
2022-11-28T01:27:34.928Z,6.04
2022-11-28T01:28:34.869Z,6.01
2022-11-28T01:29:34.844Z,6.07
2022-11-28T01:30:34.815Z,6.00
2022-11-28T01:31:34.832Z,6.03
2022-11-28T01:32:34.787Z,6.00
2022-11-28T01:33:34.750Z,6.00
2022-11-28T01:34:34.718Z,6.04
2022-11-28T01:35:34.695Z,6.04
2022-11-28T01:36:34.663Z,6.11
2022-11-28T01:37:34.658Z,6.06
2022-11-28T01:38:34.631Z,5.96
2022-11-28T01:39:34.692Z,6.03
2022-11-28T01:40:34.570Z,5.98
2022-11-28T01:41:34.538Z,5.98
2022-11-28T01:42:34.525Z,5.96
2022-11-28T01:43:34.483Z,5.93
2022-11-28T01:44:34.466Z,6.00
2022-11-28T01:45:34.438Z,5.89
2022-11-28T01:46:34.474Z,5.96
2022-11-28T01:47:34.377Z,5.91
2022-11-28T01:48:34.361Z,5.92
2022-11-28T01:49:34.343Z,5.96
2022-11-28T01:50:34.310Z,5.91
2022-11-28T01:51:34.282Z,5.89
2022-11-28T01:52:34.282Z,5.81
2022-11-28T01:53:34.234Z,5.77
2022-11-28T01:54:34.208Z,5.78
2022-11-28T01:55:34.272Z,5.78
2022-11-28T01:56:34.165Z,5.73
2022-11-28T01:57:34.132Z,5.73
2022-11-28T01:58:34.108Z,5.77
2022-11-28T01:59:34.078Z,5.71
2022-11-28T02:00:34.077Z,5.74
2022-11-28T02:01:34.041Z,5.74
2022-11-28T02:02:34.045Z,5.73
2022-11-28T02:03:33.977Z,5.70
2022-11-28T02:04:33.951Z,5.75
2022-11-28T02:05:33.922Z,5.70
2022-11-28T02:06:33.900Z,5.75
2022-11-28T02:07:33.927Z,5.74
2022-11-28T02:08:33.852Z,5.70
2022-11-28T02:09:33.821Z,5.81
2022-11-28T02:10:33.800Z,5.77
2022-11-28T02:11:33.864Z,5.74
2022-11-28T02:12:33.749Z,5.73
2022-11-28T02:13:33.719Z,5.71
2022-11-28T02:14:33.696Z,5.77
2022-11-28T02:15:33.667Z,5.73
2022-11-28T02:16:33.693Z,5.77
2022-11-28T02:17:33.614Z,5.74
2022-11-28T02:18:33.596Z,5.82
2022-11-28T02:19:33.592Z,5.75
2022-11-28T02:20:33.552Z,5.74
2022-11-28T02:21:33.509Z,5.77
2022-11-28T02:22:33.489Z,5.78
2022-11-28T02:23:33.464Z,5.75
2022-11-28T02:24:33.446Z,5.74
2022-11-28T02:25:33.413Z,5.74
2022-11-28T02:26:33.391Z,5.75
2022-11-28T02:27:33.457Z,5.74
2022-11-28T02:28:33.345Z,5.91
2022-11-28T02:29:33.396Z,5.82
2022-11-28T02:30:33.290Z,5.85
2022-11-28T02:31:33.309Z,5.89
2022-11-28T02:32:33.245Z,5.83
2022-11-28T02:33:33.218Z,5.83
2022-11-28T02:34:33.182Z,5.82
2022-11-28T02:35:33.159Z,5.85
2022-11-28T02:36:33.140Z,5.82
2022-11-28T02:37:33.108Z,5.85
2022-11-28T02:38:33.075Z,5.83
2022-11-28T02:39:33.056Z,5.83
2022-11-28T02:40:33.027Z,5.86
2022-11-28T02:41:33.006Z,5.88
2022-11-28T02:42:32.973Z,5.89
2022-11-28T02:43:33.123Z,5.88
2022-11-28T02:44:32.942Z,5.86
2022-11-28T02:45:32.902Z,5.81
2022-11-28T02:46:32.957Z,5.81
2022-11-28T02:47:32.854Z,5.89
2022-11-28T02:48:32.829Z,5.89
2022-11-28T02:49:32.798Z,5.85
2022-11-28T02:50:32.774Z,6.01
2022-11-28T02:51:32.750Z,5.95
2022-11-28T02:52:32.724Z,5.95
2022-11-28T02:53:32.704Z,5.92
2022-11-28T02:54:32.673Z,5.92
2022-11-28T02:55:32.648Z,5.92
2022-11-28T02:56:32.634Z,5.92
2022-11-28T02:57:32.595Z,5.92
2022-11-28T02:58:32.569Z,5.91
2022-11-28T02:59:32.636Z,5.92
2022-11-28T03:00:32.575Z,5.89
2022-11-28T03:01:32.532Z,5.86
2022-11-28T03:02:32.605Z,5.86
2022-11-28T03:03:32.445Z,5.83
2022-11-28T03:04:32.414Z,5.82
2022-11-28T03:05:32.397Z,5.78
2022-11-28T03:06:32.363Z,5.78
2022-11-28T03:07:32.375Z,5.73
2022-11-28T03:08:32.313Z,5.67
2022-11-28T03:09:32.288Z,5.71
2022-11-28T03:10:32.265Z,5.77
2022-11-28T03:11:32.244Z,5.71
2022-11-28T03:12:32.208Z,5.71
2022-11-28T03:13:32.186Z,5.71
2022-11-28T03:14:32.203Z,5.73
2022-11-28T03:15:32.234Z,5.71
2022-11-28T03:16:32.162Z,5.73
2022-11-28T03:17:32.086Z,5.78
2022-11-28T03:18:32.057Z,5.77
2022-11-28T03:19:32.037Z,5.57
2022-11-28T03:20:32.002Z,5.71
2022-11-28T03:21:31.980Z,5.73
2022-11-28T03:22:31.952Z,5.74
2022-11-28T03:23:31.942Z,5.71
2022-11-28T03:58:46.409Z,5.64
2022-11-28T03:59:46.279Z,5.68
2022-11-28T04:00:46.310Z,5.66
2022-11-28T04:01:46.224Z,5.63
2022-11-28T04:02:46.330Z,5.57
2022-11-28T04:03:46.162Z,5.68
2022-11-28T04:04:46.137Z,5.64
2022-11-28T04:05:46.116Z,5.63
2022-11-28T04:06:46.087Z,5.64
2022-11-28T04:07:46.392Z,5.63
2022-11-28T04:08:46.037Z,5.63
2022-11-28T04:09:46.005Z,5.60
2022-11-28T04:10:45.982Z,5.70
2022-11-28T04:11:45.957Z,5.75
2022-11-28T04:12:45.933Z,5.78
2022-11-28T04:13:45.903Z,5.75
2022-11-28T04:14:45.986Z,5.70
2022-11-28T04:15:45.851Z,5.74
2022-11-28T04:16:49.338Z,5.70
2022-11-28T04:17:45.811Z,5.73
2022-11-28T04:18:45.785Z,5.67
2022-11-28T04:19:45.748Z,5.67
2022-11-28T04:20:45.727Z,5.67
2022-11-28T04:21:45.696Z,5.60
2022-11-28T04:22:45.678Z,5.60
2022-11-28T04:23:45.645Z,5.67
2022-11-28T04:24:45.625Z,5.56
2022-11-28T04:25:45.598Z,5.55
2022-11-28T04:26:45.571Z,5.52
2022-11-28T04:27:45.546Z,5.55
2022-11-28T04:28:45.522Z,5.50
2022-11-28T04:29:45.496Z,5.50
2022-11-28T04:30:45.562Z,5.48
2022-11-28T04:31:45.482Z,5.50
2022-11-28T04:32:45.417Z,5.43
2022-11-28T04:33:45.391Z,5.59
2022-11-28T04:34:45.665Z,5.50
2022-11-28T04:35:45.341Z,5.56
2022-11-28T04:36:45.326Z,5.56
2022-11-28T04:37:45.286Z,5.52
2022-11-28T04:38:45.264Z,5.50
2022-11-28T04:39:45.262Z,5.52
2022-11-28T04:40:45.219Z,5.50
2022-11-28T04:41:45.180Z,5.45
2022-11-28T04:42:48.763Z,5.53
2022-11-28T04:43:45.140Z,5.45
2022-11-28T04:44:45.278Z,5.43
2022-11-28T04:45:45.177Z,5.38
2022-11-28T04:46:45.183Z,5.41
2022-11-28T04:47:45.033Z,5.52
2022-11-28T04:48:45.015Z,5.46
2022-11-28T04:49:44.979Z,5.40
2022-11-28T04:50:44.962Z,5.48
2022-11-28T04:51:44.927Z,5.46
2022-11-28T04:52:44.906Z,5.45
2022-11-28T04:53:44.877Z,5.55
2022-11-28T04:54:45.129Z,5.53
2022-11-28T04:55:44.841Z,5.50
2022-11-28T04:56:44.820Z,5.48
2022-11-28T04:57:44.775Z,5.41
2022-11-28T04:58:44.761Z,5.41
2022-11-28T04:59:44.721Z,5.48
2022-11-28T05:00:44.784Z,5.49
2022-11-28T05:01:44.740Z,5.48
2022-11-28T05:02:44.750Z,5.55
2022-11-28T05:03:44.659Z,5.57
2022-11-28T05:04:44.898Z,5.52
2022-11-28T05:05:44.590Z,5.46
2022-11-28T05:06:44.688Z,5.49
2022-11-28T05:07:44.650Z,5.41
2022-11-28T05:08:44.492Z,5.43
2022-11-28T05:09:44.474Z,5.43
2022-11-28T05:10:44.443Z,5.49
2022-11-28T05:11:44.434Z,5.43
2022-11-28T05:12:44.401Z,5.41
2022-11-28T05:13:44.367Z,5.41
2022-11-28T05:14:44.495Z,5.49
2022-11-28T05:15:44.324Z,5.43
2022-11-28T05:16:44.319Z,5.48
2022-11-28T05:17:44.268Z,5.41
2022-11-28T05:18:44.340Z,5.45
2022-11-28T05:19:44.212Z,5.46
2022-11-28T05:20:44.179Z,5.45
2022-11-28T05:21:44.164Z,5.37
2022-11-28T05:22:44.142Z,5.43
2022-11-28T05:23:44.124Z,5.41
2022-11-28T05:24:44.381Z,5.45
2022-11-28T05:25:44.058Z,5.48
2022-11-28T05:26:44.031Z,5.49
2022-11-28T05:27:44.011Z,5.48
2022-11-28T05:28:43.979Z,5.43
2022-11-28T05:29:48.104Z,5.38
2022-11-28T05:30:43.934Z,5.46
2022-11-28T05:31:44.000Z,5.43
2022-11-28T05:32:43.876Z,5.52
2022-11-28T05:33:43.857Z,5.43
2022-11-28T05:34:44.209Z,5.52
2022-11-28T05:35:43.804Z,5.46
2022-11-28T05:36:43.782Z,5.43
2022-11-28T05:37:43.753Z,5.49
2022-11-28T05:38:43.731Z,5.49
2022-11-28T05:39:43.988Z,5.43
2022-11-28T05:40:43.676Z,5.50
2022-11-28T05:41:43.653Z,5.49
2022-11-28T05:42:43.645Z,5.52
2022-11-28T05:43:43.595Z,5.46
2022-11-28T05:44:43.567Z,5.49
2022-11-28T05:45:43.632Z,5.45
2022-11-28T05:46:43.518Z,5.53
2022-11-28T05:47:43.497Z,5.50
2022-11-28T05:48:43.468Z,5.43
2022-11-28T05:49:43.594Z,5.50
2022-11-28T05:50:43.519Z,5.50
2022-11-28T05:51:43.393Z,5.48
2022-11-28T05:52:43.361Z,5.52
2022-11-28T05:53:43.342Z,5.55
2022-11-28T05:54:43.322Z,5.53
2022-11-28T05:55:43.291Z,5.56
2022-11-28T05:56:43.260Z,5.53
2022-11-28T05:57:43.243Z,5.52
2022-11-28T05:58:43.208Z,5.53
2022-11-28T05:59:43.393Z,5.63
2022-11-28T06:00:43.158Z,5.52
2022-11-28T06:01:43.162Z,5.49
2022-11-28T06:02:43.109Z,5.55
2022-11-28T06:03:43.081Z,5.48
2022-11-28T06:04:43.133Z,5.53
2022-11-28T06:05:43.857Z,5.60
2022-11-28T06:06:43.097Z,5.57
2022-11-28T06:07:43.061Z,5.63
2022-11-28T06:08:42.951Z,5.63
2022-11-28T06:09:43.208Z,5.57
2022-11-28T06:10:42.902Z,5.52
2022-11-28T06:11:42.879Z,5.55
2022-11-28T06:12:42.853Z,5.63
2022-11-28T06:13:42.834Z,5.57
2022-11-28T06:14:42.799Z,5.66
2022-11-28T06:15:42.778Z,5.55
2022-11-28T06:16:42.780Z,5.50
2022-11-28T06:17:42.729Z,5.57
2022-11-28T06:18:42.696Z,5.56
2022-11-28T06:19:43.072Z,5.59
2022-11-28T06:20:42.643Z,5.49
2022-11-28T06:21:42.625Z,5.52
2022-11-28T06:22:42.688Z,5.57
2022-11-28T06:23:42.570Z,5.57
2022-11-28T06:24:42.541Z,5.50
2022-11-28T06:25:42.522Z,5.52
2022-11-28T06:26:42.488Z,5.53
2022-11-28T06:27:42.477Z,5.60
2022-11-28T06:28:42.440Z,5.60
2022-11-28T06:29:42.707Z,5.48
2022-11-28T06:30:42.390Z,5.43
2022-11-28T06:31:42.412Z,5.52
2022-11-28T06:32:42.358Z,5.49
2022-11-28T06:33:42.320Z,5.50
2022-11-28T06:34:42.287Z,5.52
2022-11-28T06:35:42.267Z,5.50
2022-11-28T06:36:42.232Z,5.59
2022-11-28T06:37:42.217Z,5.52
2022-11-28T06:38:42.279Z,5.60
2022-11-28T06:39:42.411Z,5.55
2022-11-28T06:40:42.132Z,5.55
2022-11-28T06:41:42.121Z,5.63
2022-11-28T06:42:42.097Z,5.59
2022-11-28T06:43:42.059Z,5.63
2022-11-28T06:44:42.029Z,5.56
2022-11-28T06:45:42.064Z,5.50
2022-11-28T06:46:41.978Z,5.63
2022-11-28T06:47:41.957Z,5.60
2022-11-28T06:48:41.923Z,5.55
2022-11-28T06:49:42.257Z,5.64
2022-11-28T06:50:41.882Z,5.63
2022-11-28T06:51:41.858Z,5.67
2022-11-28T06:52:41.829Z,5.63
2022-11-28T06:53:41.804Z,5.63
2022-11-28T06:54:41.866Z,5.55
2022-11-28T06:55:41.754Z,5.68
2022-11-28T06:56:41.725Z,5.64
2022-11-28T06:57:41.703Z,5.63
2022-11-28T06:58:41.685Z,5.64
2022-11-28T06:59:42.000Z,5.63
2022-11-28T07:00:41.712Z,5.68
2022-11-28T07:01:41.646Z,5.64
2022-11-28T07:02:41.639Z,5.66
2022-11-28T07:03:41.554Z,5.67
2022-11-28T07:04:41.516Z,5.64
2022-11-28T07:05:41.524Z,5.66
2022-11-28T07:06:41.469Z,5.66
2022-11-28T07:07:53.264Z,5.60
2022-11-28T07:08:41.429Z,5.70
2022-11-28T07:09:41.780Z,5.73
2022-11-28T07:10:41.453Z,5.71
2022-11-28T07:11:41.347Z,5.74
2022-11-28T07:12:41.314Z,5.71
2022-11-28T07:13:41.299Z,5.70
2022-11-28T07:14:41.278Z,5.70
2022-11-28T07:15:41.244Z,5.68
2022-11-28T07:16:41.311Z,5.73
2022-11-28T07:17:41.189Z,5.71
2022-11-28T07:18:41.155Z,5.73
2022-11-28T07:19:41.503Z,5.73
2022-11-28T07:20:41.115Z,5.74
2022-11-28T07:21:41.087Z,5.73
2022-11-28T07:22:41.061Z,5.73
2022-11-28T07:23:41.031Z,5.74
2022-11-28T07:24:41.007Z,5.74
2022-11-28T07:25:40.992Z,5.83
2022-11-28T07:26:41.053Z,5.82
2022-11-28T07:27:40.935Z,5.82
2022-11-28T07:28:40.913Z,5.77
2022-11-28T07:29:41.285Z,5.77
2022-11-28T07:30:40.856Z,5.81
2022-11-28T07:31:40.885Z,5.83
2022-11-28T07:32:40.805Z,5.81
2022-11-28T07:33:40.780Z,5.86
2022-11-28T07:34:40.751Z,5.81
2022-11-28T07:35:40.744Z,5.91
2022-11-28T07:36:40.695Z,5.85
2022-11-28T07:37:40.675Z,5.77
2022-11-28T07:38:40.653Z,5.78
2022-11-28T07:39:40.954Z,5.83
2022-11-28T07:40:40.600Z,5.82
2022-11-28T07:41:40.597Z,5.85
2022-11-28T07:42:40.641Z,5.91
2022-11-28T07:43:40.522Z,5.83
2022-11-28T07:44:40.499Z,5.88
2022-11-28T07:45:59.243Z,5.92
2022-11-28T07:46:40.493Z,5.98
2022-11-28T07:47:40.424Z,5.91
2022-11-28T07:48:40.408Z,5.98
2022-11-28T07:49:40.740Z,5.89
2022-11-28T07:50:40.343Z,5.98
2022-11-28T07:51:40.331Z,5.96
2022-11-28T07:52:40.288Z,5.96
2022-11-28T07:53:40.271Z,5.95
2022-11-28T07:54:40.241Z,5.95
2022-11-28T07:55:40.222Z,5.96
2022-11-28T07:57:10.744Z,5.95
2022-11-28T07:57:40.166Z,6.06
2022-11-28T07:58:40.139Z,6.03
2022-11-28T07:59:40.320Z,6.04
2022-11-28T08:00:40.083Z,6.03
2022-11-28T08:01:40.151Z,6.06
2022-11-28T08:02:40.037Z,6.01
2022-11-28T08:03:40.012Z,6.10
2022-11-28T08:04:45.886Z,6.07
2022-11-28T08:05:39.964Z,6.06
2022-11-28T08:06:39.938Z,6.13
2022-11-28T08:07:39.962Z,6.13
2022-11-28T08:08:39.891Z,6.25
2022-11-28T08:09:39.892Z,6.19
2022-11-28T08:10:39.831Z,6.19
2022-11-28T08:11:39.813Z,6.30
2022-11-28T08:12:39.782Z,6.28
2022-11-28T08:13:39.764Z,6.26
2022-11-28T08:14:39.878Z,6.35
2022-11-28T08:15:39.710Z,6.35
2022-11-28T08:16:39.728Z,6.36
2022-11-28T08:17:39.663Z,6.32
2022-11-28T08:18:39.636Z,6.33
2022-11-28T08:19:39.607Z,6.32
2022-11-28T08:20:39.595Z,6.35
2022-11-28T08:21:39.556Z,6.43
2022-11-28T08:22:39.527Z,6.35
2022-11-28T08:23:39.510Z,6.40
2022-11-28T08:24:39.483Z,6.43
2022-11-28T08:25:39.455Z,6.43
2022-11-28T08:26:39.433Z,6.40
2022-11-28T08:27:39.419Z,6.41
2022-11-28T08:28:39.377Z,6.43
2022-11-28T08:29:39.377Z,6.51
2022-11-28T08:30:39.380Z,6.44
2022-11-28T08:31:39.308Z,6.47
2022-11-28T08:32:39.278Z,6.56
2022-11-28T08:33:39.253Z,6.59
2022-11-28T08:34:39.245Z,6.51
2022-11-28T08:35:39.200Z,6.53
2022-11-28T08:36:39.173Z,6.54
2022-11-28T08:37:39.154Z,6.61
2022-11-28T08:38:39.125Z,6.59
2022-11-28T08:39:39.097Z,6.59
2022-11-28T08:40:39.077Z,6.66
2022-11-28T08:41:39.050Z,6.61
2022-11-28T08:42:39.029Z,6.63
2022-11-28T08:43:39.004Z,6.62
2022-11-28T08:44:38.972Z,6.65
2022-11-28T08:45:38.980Z,6.62
2022-11-28T08:46:38.928Z,6.66
2022-11-28T08:47:38.901Z,6.68
2022-11-28T08:48:38.875Z,6.63
2022-11-28T08:49:38.880Z,6.69
2022-11-28T08:50:40.641Z,6.65
2022-11-28T08:51:38.796Z,6.71
2022-11-28T08:52:38.769Z,6.71
2022-11-28T08:53:38.748Z,6.80
2022-11-28T08:54:38.721Z,6.76
2022-11-28T08:55:41.706Z,6.81
2022-11-28T08:56:38.670Z,6.77
2022-11-28T08:57:38.670Z,6.80
2022-11-28T08:58:38.630Z,6.83
2022-11-28T08:59:38.602Z,6.90
2022-11-28T09:00:38.570Z,6.87
2022-11-28T09:01:38.625Z,6.90
2022-11-28T09:02:38.519Z,6.97
2022-11-28T09:03:38.555Z,7.04
2022-11-28T09:04:38.467Z,6.91
2022-11-28T09:05:38.460Z,7.08
2022-11-28T09:06:38.424Z,7.08
2022-11-28T09:07:38.444Z,7.04
2022-11-28T09:08:38.364Z,7.17
2022-11-28T09:09:38.348Z,7.19
2022-11-28T09:10:38.321Z,7.24
2022-11-28T09:11:38.299Z,7.15
2022-11-28T09:12:38.271Z,7.20
2022-11-28T09:13:38.249Z,7.19
2022-11-28T09:14:38.217Z,7.26
2022-11-28T09:15:38.197Z,7.23
2022-11-28T09:16:38.219Z,7.31
2022-11-28T09:17:38.146Z,7.34
2022-11-28T09:18:38.124Z,7.31
2022-11-28T09:19:38.093Z,7.42
2022-11-28T09:20:38.073Z,7.40
2022-11-28T09:21:38.046Z,7.49
2022-11-28T09:22:38.025Z,7.56
2022-11-28T09:23:37.993Z,7.66
2022-11-28T09:24:37.972Z,7.74
2022-11-28T09:25:37.941Z,7.69
2022-11-28T09:26:37.921Z,7.75
2022-11-28T09:27:37.895Z,7.74
2022-11-28T09:28:37.874Z,7.81
2022-11-28T09:29:37.843Z,7.93
2022-11-28T09:30:37.869Z,7.85
2022-11-28T09:31:37.805Z,7.87
2022-11-28T09:32:37.775Z,7.94
2022-11-28T09:33:37.745Z,7.92
2022-11-28T09:34:37.724Z,7.96
2022-11-28T09:35:37.698Z,7.89
2022-11-28T09:36:37.679Z,7.94
2022-11-28T09:37:37.662Z,7.90
2022-11-28T09:38:37.630Z,8.03
2022-11-28T09:39:57.138Z,8.00
2022-11-28T09:40:37.576Z,8.10
2022-11-28T09:41:37.549Z,8.15
2022-11-28T09:42:37.556Z,8.11
2022-11-28T09:43:37.502Z,8.12
2022-11-28T09:44:37.476Z,8.21
2022-11-28T09:45:37.468Z,8.25
2022-11-28T09:46:37.509Z,8.25
2022-11-28T09:47:37.402Z,8.33
2022-11-28T09:48:37.381Z,8.33
2022-11-28T09:49:40.843Z,8.40
2022-11-28T09:50:37.343Z,8.45
2022-11-28T09:51:37.305Z,8.44
2022-11-28T09:52:37.332Z,8.45
2022-11-28T09:53:37.262Z,8.45
2022-11-28T09:54:37.241Z,8.47
2022-11-28T09:55:37.256Z,8.42
2022-11-28T09:56:37.204Z,8.42
2022-11-28T09:57:37.218Z,8.58
2022-11-28T09:58:37.138Z,8.48
2022-11-28T09:59:37.196Z,8.54
2022-11-28T10:00:37.095Z,8.54
2022-11-28T10:01:37.059Z,8.60
2022-11-28T10:02:37.051Z,8.66
2022-11-28T10:03:37.121Z,8.75
2022-11-28T10:04:37.024Z,8.73
2022-11-28T10:05:36.974Z,8.72
2022-11-28T10:06:36.951Z,8.87
2022-11-28T10:07:36.969Z,8.84
2022-11-28T10:08:36.896Z,8.84
2022-11-28T10:09:36.893Z,8.84
2022-11-28T10:10:36.847Z,8.93
2022-11-28T10:11:36.820Z,8.91
2022-11-28T10:12:36.802Z,8.93
2022-11-28T10:14:05.986Z,8.86
2022-11-28T10:14:36.756Z,8.99
2022-11-28T10:15:36.727Z,8.94
2022-11-28T10:16:36.774Z,9.04
2022-11-28T10:17:36.676Z,9.06
2022-11-28T10:18:36.657Z,9.12
2022-11-28T10:19:57.463Z,8.97
2022-11-28T10:20:36.619Z,8.87
2022-11-28T10:21:36.582Z,8.90
2022-11-28T10:22:36.566Z,8.91
2022-11-28T10:23:36.538Z,8.99
2022-11-28T10:24:36.519Z,9.01
2022-11-28T10:25:36.491Z,9.01
2022-11-28T10:26:36.496Z,8.96
2022-11-28T10:27:36.436Z,8.87
2022-11-28T10:28:36.421Z,8.88
2022-11-28T10:29:36.392Z,8.90
2022-11-28T10:30:36.454Z,9.05
2022-11-28T10:31:36.343Z,9.15
2022-11-28T10:32:36.325Z,9.15
2022-11-28T10:33:36.301Z,9.12
2022-11-28T10:34:36.281Z,9.10
2022-11-28T10:35:36.248Z,9.18
2022-11-28T10:36:36.237Z,9.15
2022-11-28T10:37:36.201Z,9.13
2022-11-28T10:38:36.191Z,9.13
2022-11-28T10:39:36.162Z,9.20
2022-11-28T10:40:36.135Z,9.20
2022-11-28T10:41:36.137Z,9.23
2022-11-28T10:42:36.096Z,9.27
2022-11-28T10:43:36.057Z,9.23
2022-11-28T10:44:36.049Z,9.15
2022-11-28T10:45:36.016Z,8.97
2022-11-28T10:46:36.064Z,8.96
2022-11-28T10:47:35.978Z,8.91
2022-11-28T10:48:40.636Z,8.87
2022-11-28T10:49:35.920Z,8.81
2022-11-28T10:50:35.898Z,8.76
2022-11-28T10:51:35.878Z,8.83
2022-11-28T10:52:35.851Z,8.81
2022-11-28T10:53:35.866Z,8.78
2022-11-28T10:54:35.818Z,8.76
2022-11-28T10:55:35.777Z,8.69
2022-11-28T10:56:35.759Z,8.69
2022-11-28T10:57:35.738Z,8.72
2022-11-28T10:58:35.710Z,8.60
2022-11-28T10:59:35.682Z,8.65
2022-11-28T11:00:35.663Z,8.60
2022-11-28T11:01:35.720Z,8.58
2022-11-28T11:02:35.625Z,8.66
2022-11-28T11:03:35.586Z,8.60
2022-11-28T11:04:35.639Z,8.60
2022-11-28T11:05:35.539Z,8.58
2022-11-28T11:06:41.837Z,8.66
2022-11-28T11:08:35.471Z,8.54
2022-11-28T11:09:35.443Z,8.58
2022-11-28T11:10:35.431Z,8.60
2022-11-28T11:11:35.392Z,8.63
2022-11-28T11:12:35.378Z,8.60
2022-11-28T11:13:35.361Z,8.60
2022-11-28T11:14:35.327Z,8.58
2022-11-28T11:15:35.299Z,8.69
2022-11-28T11:16:35.359Z,8.71
2022-11-28T11:17:36.556Z,8.75
2022-11-28T11:18:35.233Z,8.76
2022-11-28T11:19:35.204Z,8.79
2022-11-28T11:20:35.182Z,8.84
2022-11-28T11:21:35.159Z,8.90
2022-11-28T11:22:35.132Z,8.84
2022-11-28T11:23:38.236Z,8.94
2022-11-28T11:24:35.091Z,9.01
2022-11-28T11:25:35.059Z,8.91
2022-11-28T11:26:35.074Z,8.94
2022-11-28T11:27:35.006Z,9.13
2022-11-28T11:28:34.987Z,9.02
2022-11-28T11:29:34.962Z,8.96
2022-11-28T11:30:35.042Z,9.10
2022-11-28T11:31:34.925Z,9.16
2022-11-28T11:32:34.899Z,9.27
2022-11-28T11:33:34.866Z,9.20
2022-11-28T11:34:34.848Z,9.43
2022-11-28T11:35:34.815Z,9.46
2022-11-28T11:36:34.797Z,9.58
2022-11-28T11:37:34.775Z,9.67
2022-11-28T11:38:37.824Z,9.76
2022-11-28T11:39:34.728Z,9.70
2022-11-28T11:40:34.705Z,9.82
2022-11-28T11:41:34.675Z,9.85
2022-11-28T11:42:34.663Z,9.85
2022-11-28T11:43:34.628Z,9.93
2022-11-28T11:44:34.829Z,10.00
2022-11-28T11:45:34.580Z,9.94
2022-11-28T11:46:34.597Z,10.04
2022-11-28T11:47:34.543Z,10.04
2022-11-28T11:48:34.506Z,9.97
2022-11-28T11:49:34.492Z,9.94
2022-11-28T11:50:34.466Z,10.03
2022-11-28T11:51:39.246Z,9.93
2022-11-28T11:52:34.423Z,9.94
2022-11-28T11:53:34.385Z,9.97
2022-11-28T11:54:34.385Z,9.86
2022-11-28T11:55:34.340Z,9.78
2022-11-28T11:56:34.319Z,9.73
2022-11-28T11:57:34.859Z,9.67
2022-11-28T11:58:34.281Z,9.60
2022-11-28T11:59:34.281Z,9.64
2022-11-28T12:00:34.267Z,9.52
2022-11-28T12:01:34.212Z,9.46
2022-11-28T12:02:34.308Z,9.46
2022-11-28T12:03:34.261Z,9.53
2022-11-28T12:04:53.826Z,9.46
2022-11-28T12:05:52.352Z,9.56
2022-11-28T12:06:34.226Z,9.60
2022-11-28T12:07:34.129Z,9.56
2022-11-28T12:08:34.061Z,9.58
2022-11-28T12:09:34.028Z,9.61
2022-11-28T12:10:34.046Z,9.71
2022-11-28T12:11:33.961Z,9.75
2022-11-28T12:12:33.943Z,9.78
2022-11-28T12:13:33.926Z,9.81
2022-11-28T12:14:33.896Z,9.73
2022-11-28T12:15:33.871Z,9.85
2022-11-28T12:16:33.907Z,9.89
2022-11-28T12:17:48.223Z,9.83
2022-11-28T12:18:34.739Z,9.83
2022-11-28T12:19:33.773Z,9.96
2022-11-28T12:20:33.750Z,9.89
2022-11-28T12:21:33.726Z,9.99
2022-11-28T12:22:33.700Z,9.97
2022-11-28T12:23:33.675Z,10.01
2022-11-28T12:24:33.676Z,9.99
2022-11-28T12:25:33.624Z,9.99
2022-11-28T12:26:33.636Z,9.93
2022-11-28T12:27:33.588Z,10.06
2022-11-28T12:28:33.558Z,10.07
2022-11-28T12:29:33.540Z,10.09
2022-11-28T12:30:33.526Z,9.96
2022-11-28T12:31:33.523Z,10.03
2022-11-28T12:32:33.470Z,10.12
2022-11-28T12:33:33.444Z,10.19
2022-11-28T12:34:33.427Z,10.15
2022-11-28T12:35:33.393Z,10.09
2022-11-28T12:36:33.375Z,10.17
2022-11-28T12:38:02.616Z,10.30
2022-11-28T12:38:33.328Z,10.30
2022-11-28T12:39:33.301Z,10.18
2022-11-28T12:40:33.283Z,10.19
2022-11-28T12:41:33.256Z,10.19
2022-11-28T12:42:33.236Z,10.15
2022-11-28T12:43:33.217Z,10.15
2022-11-28T12:44:33.186Z,10.22
2022-11-28T12:45:33.159Z,10.21
2022-11-28T12:46:33.161Z,10.10
2022-11-28T12:47:33.113Z,10.18
2022-11-28T12:48:33.102Z,10.22
2022-11-28T12:49:33.060Z,10.14
2022-11-28T12:50:33.050Z,10.17
2022-11-28T12:51:33.036Z,10.07
2022-11-28T12:52:32.999Z,10.21
2022-11-28T12:53:32.971Z,10.21
2022-11-28T12:54:32.952Z,10.10
2022-11-28T12:55:32.923Z,10.24
2022-11-28T12:56:32.908Z,10.18
2022-11-28T12:57:32.887Z,10.22
2022-11-28T12:58:32.858Z,10.12
2022-11-28T12:59:32.833Z,10.21
2022-11-28T13:00:32.814Z,10.22
2022-11-28T13:01:32.966Z,10.06
2022-11-28T13:02:32.953Z,10.07
2022-11-28T13:03:32.825Z,10.07
2022-11-28T13:04:32.716Z,9.99
2022-11-28T13:05:32.693Z,9.96
2022-11-28T13:06:32.674Z,10.00
2022-11-28T13:07:32.668Z,10.01
2022-11-28T13:08:32.632Z,10.04
2022-11-28T13:09:32.613Z,10.04
2022-11-28T13:10:33.747Z,9.85
2022-11-28T13:11:32.561Z,9.85
2022-11-28T13:12:32.549Z,9.83
2022-11-28T13:13:32.497Z,9.85
2022-11-28T13:14:32.484Z,9.82
2022-11-28T13:15:32.453Z,9.88
2022-11-28T13:16:32.540Z,9.86
2022-11-28T13:17:32.407Z,9.82
2022-11-28T13:18:32.408Z,9.81
2022-11-28T13:19:32.360Z,9.79
2022-11-28T13:20:32.333Z,9.76
2022-11-28T13:21:32.313Z,9.73
2022-11-28T13:22:32.292Z,9.76
2022-11-28T13:23:32.261Z,9.85
2022-11-28T13:24:32.241Z,9.83
2022-11-28T13:25:32.215Z,9.82
2022-11-28T13:26:32.192Z,9.83
2022-11-28T13:27:32.168Z,9.81
2022-11-28T13:28:32.146Z,9.76
2022-11-28T13:29:32.119Z,9.88
2022-11-28T13:30:32.100Z,9.81
2022-11-28T13:31:32.135Z,9.86
2022-11-28T13:32:32.045Z,9.88
2022-11-28T13:33:32.028Z,9.89
2022-11-28T13:34:31.997Z,9.82
2022-11-28T13:35:31.975Z,9.97
2022-11-28T13:38:37.007Z,10.03
2022-11-28T13:39:31.883Z,10.00
2022-11-28T13:40:31.871Z,9.94
2022-11-28T13:42:05.900Z,9.94
2022-11-28T13:43:33.104Z,10.15
2022-11-28T13:44:31.757Z,10.04
2022-11-28T13:45:32.601Z,10.04
2022-11-28T13:46:31.763Z,10.06
2022-11-28T13:47:31.691Z,10.07
2022-11-28T13:48:49.871Z,10.10
2022-11-28T13:49:31.641Z,10.07
2022-11-28T13:50:31.619Z,10.22
2022-11-28T13:51:32.555Z,10.10
2022-11-28T13:52:31.570Z,10.22
2022-11-28T13:53:31.552Z,10.18
2022-11-28T13:54:31.532Z,10.18